createdAt,value
2022-09-10T00:00:42.238Z,18.52
2022-09-10T00:01:42.262Z,18.57
2022-09-10T00:02:42.235Z,18.62
2022-09-10T00:03:42.245Z,18.54
2022-09-10T00:04:42.239Z,18.49
2022-09-10T00:05:42.199Z,18.67
2022-09-10T00:06:43.187Z,18.68
2022-09-10T00:07:42.243Z,18.55
2022-09-10T00:08:42.183Z,18.19
2022-09-10T00:09:42.166Z,18.27
2022-09-10T00:10:42.162Z,18.24
2022-09-10T00:11:42.152Z,18.31
2022-09-10T00:12:42.176Z,18.18
2022-09-10T00:13:42.142Z,18.25
2022-09-10T00:14:42.170Z,18.18
2022-09-10T00:16:49.485Z,18.34
2022-09-10T00:17:50.611Z,18.40
2022-09-10T00:18:51.354Z,18.39
2022-09-10T00:19:50.570Z,18.34
2022-09-10T00:20:50.577Z,18.44
2022-09-10T00:21:50.567Z,18.17
2022-09-10T00:22:50.587Z,18.13
2022-09-10T00:23:50.550Z,18.04
2022-09-10T00:24:50.534Z,18.06
2022-09-10T00:25:50.599Z,18.06
2022-09-10T00:26:51.331Z,18.15
2022-09-10T00:28:22.958Z,18.29
2022-09-10T00:28:50.518Z,18.27
2022-09-10T00:29:50.526Z,18.19
2022-09-10T00:30:50.514Z,18.29
2022-09-10T00:31:50.566Z,18.29
2022-09-10T00:32:50.495Z,18.50
2022-09-10T00:33:50.509Z,18.34
2022-09-10T00:34:50.489Z,18.29
2022-09-10T00:35:50.614Z,18.22
2022-09-10T00:36:50.495Z,18.27
2022-09-10T00:37:50.526Z,18.17
2022-09-10T00:38:50.482Z,18.17
2022-09-10T00:39:50.510Z,17.73
2022-09-10T00:40:50.455Z,17.79
2022-09-10T00:41:50.447Z,17.95
2022-09-10T00:42:50.443Z,18.09
2022-09-10T00:43:50.443Z,18.07
2022-09-10T00:44:50.446Z,18.00
2022-09-10T00:45:50.474Z,17.85
2022-09-10T00:46:50.415Z,17.97
2022-09-10T00:47:50.402Z,17.95
2022-09-10T00:48:50.474Z,18.04
2022-09-10T00:49:50.382Z,18.07
2022-09-10T00:50:50.414Z,18.10
2022-09-10T00:51:50.378Z,18.19
2022-09-10T00:52:50.399Z,18.24
2022-09-10T00:53:50.394Z,18.29
2022-09-10T00:54:50.377Z,18.29
2022-09-10T00:55:50.366Z,18.29
2022-09-10T00:56:50.366Z,18.13
2022-09-10T00:57:50.340Z,18.06
2022-09-10T00:58:50.341Z,18.09
2022-09-10T00:59:50.354Z,18.04
2022-09-10T01:00:50.350Z,18.29
2022-09-10T01:01:50.511Z,18.24
2022-09-10T01:02:50.420Z,18.24
2022-09-10T01:03:50.306Z,18.28
2022-09-10T01:04:50.293Z,18.31
2022-09-10T01:05:50.281Z,18.21
2022-09-10T01:06:50.285Z,18.02
2022-09-10T01:07:50.286Z,18.15
2022-09-10T01:08:50.274Z,18.19
2022-09-10T01:09:50.274Z,18.21
2022-09-10T01:10:50.269Z,18.21
2022-09-10T01:11:50.253Z,18.24
2022-09-10T01:12:50.266Z,18.19
2022-09-10T01:13:50.227Z,18.10
2022-09-10T01:14:50.229Z,17.97
2022-09-10T01:15:50.250Z,18.03
2022-09-10T01:16:50.230Z,17.91
2022-09-10T01:17:50.254Z,17.85
2022-09-10T01:18:50.207Z,17.99
2022-09-10T01:19:50.211Z,17.81
2022-09-10T01:20:50.178Z,17.92
2022-09-10T01:21:50.205Z,17.97
2022-09-10T01:22:50.166Z,18.04
2022-09-10T01:23:50.178Z,17.99
2022-09-10T01:24:50.158Z,17.84
2022-09-10T01:25:50.170Z,17.78
2022-09-10T01:26:50.171Z,17.76
2022-09-10T01:27:50.154Z,17.87
2022-09-10T01:28:50.158Z,17.87
2022-09-10T01:29:50.112Z,17.73
2022-09-10T01:30:50.129Z,17.70
2022-09-10T01:31:50.104Z,17.76
2022-09-10T01:32:50.124Z,17.71
2022-09-10T01:33:50.104Z,17.74
2022-09-10T01:34:50.093Z,17.64
2022-09-10T01:35:50.108Z,17.66
2022-09-10T01:36:50.105Z,17.62
2022-09-10T01:37:50.102Z,17.67
2022-09-10T01:38:50.099Z,17.88
2022-09-10T01:39:50.122Z,18.02
2022-09-10T01:40:50.096Z,18.12
2022-09-10T01:41:50.044Z,17.89
2022-09-10T01:42:50.055Z,17.97
2022-09-10T01:43:50.068Z,17.79
2022-09-10T01:44:50.069Z,17.71
2022-09-10T01:45:50.080Z,17.79
2022-09-10T01:46:50.024Z,17.53
2022-09-10T01:47:50.040Z,17.70
2022-09-10T01:48:50.021Z,17.85
2022-09-10T01:49:50.032Z,17.95
2022-09-10T01:50:50.056Z,18.02
2022-09-10T01:51:49.996Z,18.15
2022-09-10T01:52:49.993Z,18.00
2022-09-10T01:53:49.996Z,17.91
2022-09-10T01:54:49.988Z,17.76
2022-09-10T01:55:49.997Z,17.82
2022-09-10T01:56:49.985Z,17.73
2022-09-10T01:57:50.001Z,17.79
2022-09-10T01:58:49.954Z,17.89
2022-09-10T01:59:49.949Z,17.91
2022-09-10T02:00:49.951Z,18.00
2022-09-10T02:01:49.956Z,17.94
2022-09-10T02:02:49.936Z,17.94
2022-09-10T02:03:49.959Z,17.79
2022-09-10T02:04:49.921Z,17.87
2022-09-10T02:05:49.916Z,17.95
2022-09-10T02:06:49.916Z,17.82
2022-09-10T02:07:49.933Z,17.82
2022-09-10T02:08:49.881Z,17.73
2022-09-10T02:09:49.928Z,17.84
2022-09-10T02:10:49.912Z,17.99
2022-09-10T02:11:49.868Z,17.99
2022-09-10T02:12:49.889Z,18.00
2022-09-10T02:13:49.860Z,17.74
2022-09-10T02:14:49.884Z,17.54
2022-09-10T02:15:49.840Z,17.59
2022-09-10T02:16:49.854Z,17.59
2022-09-10T02:17:49.849Z,17.57
2022-09-10T02:18:49.837Z,17.63
2022-09-10T02:19:49.836Z,17.59
2022-09-10T02:20:49.801Z,17.79
2022-09-10T02:21:49.844Z,17.99
2022-09-10T02:22:49.853Z,17.88
2022-09-10T02:23:49.823Z,17.55
2022-09-10T02:24:49.800Z,17.43
2022-09-10T02:25:49.788Z,17.38
2022-09-10T02:26:49.772Z,17.47
2022-09-10T02:27:49.780Z,17.51
2022-09-10T02:28:49.787Z,17.53
2022-09-10T02:29:49.764Z,17.62
2022-09-10T02:30:49.792Z,17.25
2022-09-10T02:31:49.777Z,17.50
2022-09-10T02:32:49.748Z,17.53
2022-09-10T02:33:49.725Z,17.54
2022-09-10T02:34:49.740Z,17.67
2022-09-10T02:35:49.748Z,17.78
2022-09-10T02:36:49.711Z,17.82
2022-09-10T02:37:49.708Z,17.87
2022-09-10T02:38:49.697Z,17.79
2022-09-10T02:39:49.769Z,17.67
2022-09-10T02:40:49.687Z,17.81
2022-09-10T02:41:49.707Z,17.64
2022-09-10T02:42:49.692Z,17.67
2022-09-10T02:43:49.699Z,17.74
2022-09-10T02:44:49.693Z,17.70
2022-09-10T02:45:49.689Z,17.82
2022-09-10T02:46:49.672Z,17.87
2022-09-10T02:47:49.666Z,17.81
2022-09-10T02:48:49.643Z,17.63
2022-09-10T02:49:49.636Z,17.63
2022-09-10T02:50:49.651Z,17.66
2022-09-10T02:51:49.647Z,17.54
2022-09-10T02:52:49.607Z,17.41
2022-09-10T02:53:49.631Z,17.74
2022-09-10T02:54:49.608Z,17.73
2022-09-10T02:55:49.591Z,17.79
2022-09-10T02:56:49.626Z,17.63
2022-09-10T02:57:49.593Z,17.82
2022-09-10T02:58:49.602Z,17.84
2022-09-10T02:59:49.594Z,17.89
2022-09-10T03:00:49.640Z,17.99
2022-09-10T03:01:49.594Z,17.94
2022-09-10T03:02:49.587Z,18.02
2022-09-10T03:03:49.585Z,18.02
2022-09-10T03:04:49.546Z,18.13
2022-09-10T03:05:49.565Z,18.17
2022-09-10T03:06:49.558Z,18.21
2022-09-10T03:07:49.562Z,18.03
2022-09-10T03:08:49.539Z,18.02
2022-09-10T03:09:49.538Z,17.87
2022-09-10T03:10:49.534Z,18.07
2022-09-10T03:11:50.502Z,18.12
2022-09-10T03:12:49.486Z,18.12
2022-09-10T03:13:49.509Z,18.22
2022-09-10T03:14:49.477Z,18.27
2022-09-10T03:15:49.474Z,18.40
2022-09-10T03:16:49.466Z,18.47
2022-09-10T03:17:49.453Z,18.34
2022-09-10T03:18:49.465Z,18.44
2022-09-10T03:19:49.450Z,18.28
2022-09-10T03:20:49.451Z,18.22
2022-09-10T03:21:49.525Z,17.51
2022-09-10T03:22:49.421Z,17.64
2022-09-10T03:23:49.451Z,17.54
2022-09-10T03:24:49.460Z,17.70
2022-09-10T03:25:50.029Z,17.82
2022-09-10T03:26:51.374Z,17.82
2022-09-10T03:27:49.421Z,18.04
2022-09-10T03:28:49.401Z,18.10
2022-09-10T03:29:49.386Z,18.10
2022-09-10T03:30:49.394Z,17.89
2022-09-10T03:31:49.401Z,17.97
2022-09-10T03:32:49.361Z,17.94
2022-09-10T03:33:49.389Z,17.87
2022-09-10T03:34:49.356Z,17.66
2022-09-10T03:35:49.342Z,17.70
2022-09-10T03:36:49.358Z,17.91
2022-09-10T03:37:49.336Z,17.79
2022-09-10T03:38:49.346Z,17.79
2022-09-10T03:39:49.376Z,17.81
2022-09-10T03:40:49.332Z,17.95
2022-09-10T03:41:49.305Z,17.99
2022-09-10T03:42:49.300Z,17.95
2022-09-10T03:43:49.291Z,17.81
2022-09-10T03:44:49.296Z,17.55
2022-09-10T03:45:49.343Z,17.63
2022-09-10T03:46:49.304Z,17.71
2022-09-10T03:47:49.260Z,17.79
2022-09-10T03:48:53.273Z,17.46
2022-09-10T03:49:51.345Z,17.71
2022-09-10T03:50:49.249Z,17.84
2022-09-10T03:51:49.243Z,17.95
2022-09-10T03:52:49.259Z,17.91
2022-09-10T03:53:49.240Z,17.64
2022-09-10T03:54:49.234Z,17.53
2022-09-10T03:55:49.246Z,17.40
2022-09-10T03:56:49.218Z,17.53
2022-09-10T03:57:49.208Z,17.51
2022-09-10T03:58:49.284Z,17.64
2022-09-10T03:59:49.195Z,17.41
2022-09-10T04:00:49.382Z,17.50
2022-09-10T04:01:49.214Z,17.62
2022-09-10T04:02:49.215Z,17.53
2022-09-10T04:03:49.195Z,17.35
2022-09-10T04:04:49.162Z,17.33
2022-09-10T04:05:49.182Z,17.36
2022-09-10T04:06:49.163Z,17.54
2022-09-10T04:07:49.191Z,17.48
2022-09-10T04:08:49.142Z,17.55
2022-09-10T04:09:49.155Z,17.32
2022-09-10T04:10:49.187Z,17.40
2022-09-10T04:11:49.130Z,17.41
2022-09-10T04:12:49.137Z,17.41
2022-09-10T04:13:49.117Z,17.46
2022-09-10T04:14:49.130Z,17.48
2022-09-10T04:15:49.129Z,17.57
2022-09-10T04:16:49.149Z,17.43
2022-09-10T04:17:49.090Z,17.30
2022-09-10T04:18:49.114Z,17.25
2022-09-10T04:19:49.077Z,17.32
2022-09-10T04:20:49.134Z,17.18
2022-09-10T04:21:49.073Z,17.30
2022-09-10T04:22:49.057Z,17.28
2022-09-10T04:23:49.046Z,17.14
2022-09-10T04:24:49.058Z,17.11
2022-09-10T04:25:49.041Z,17.14
2022-09-10T04:26:49.043Z,17.11
2022-09-10T04:27:49.022Z,17.11
2022-09-10T04:28:49.015Z,17.10
2022-09-10T04:29:49.017Z,17.04
2022-09-10T04:30:49.107Z,16.93
2022-09-10T04:31:49.054Z,16.89
2022-09-10T04:32:49.000Z,16.98
2022-09-10T04:33:49.012Z,16.77
2022-09-10T04:34:48.985Z,16.81
2022-09-10T04:35:48.982Z,16.93
2022-09-10T04:36:48.981Z,16.92
2022-09-10T04:37:48.967Z,17.03
2022-09-10T04:38:48.971Z,17.06
2022-09-10T04:39:49.032Z,17.00
2022-09-10T04:40:48.950Z,17.03
2022-09-10T04:41:48.945Z,16.99
2022-09-10T04:42:48.946Z,16.95
2022-09-10T04:43:48.921Z,16.99
2022-09-10T04:44:48.934Z,17.04
2022-09-10T04:45:48.932Z,17.07
2022-09-10T04:46:48.929Z,17.13
2022-09-10T04:47:48.906Z,17.20
2022-09-10T04:48:48.913Z,17.14
2022-09-10T04:49:48.890Z,17.04
2022-09-10T04:51:14.392Z,16.98
2022-09-10T04:51:50.901Z,16.95
2022-09-10T04:52:48.869Z,16.88
2022-09-10T04:53:48.870Z,16.81
2022-09-10T04:54:49.064Z,16.86
2022-09-10T04:55:48.872Z,16.86
2022-09-10T04:56:48.854Z,16.73
2022-09-10T04:57:48.845Z,16.78
2022-09-10T04:58:48.837Z,16.78
2022-09-10T04:59:48.828Z,16.83
2022-09-10T05:00:48.876Z,16.98
2022-09-10T05:01:48.862Z,16.88
2022-09-10T05:02:48.820Z,16.93
2022-09-10T05:03:48.816Z,16.92
2022-09-10T05:04:48.804Z,16.96
2022-09-10T05:05:48.792Z,17.04
2022-09-10T05:06:48.906Z,17.14
2022-09-10T05:07:48.777Z,17.20
2022-09-10T05:08:48.780Z,17.28
2022-09-10T05:09:48.791Z,17.38
2022-09-10T05:10:48.770Z,17.55
2022-09-10T05:11:48.772Z,17.62
2022-09-10T05:12:48.772Z,17.73
2022-09-10T05:13:48.788Z,17.73
2022-09-10T05:14:48.740Z,17.88
2022-09-10T05:15:48.740Z,17.84
2022-09-10T05:16:48.776Z,18.04
2022-09-10T05:17:48.731Z,18.12
2022-09-10T05:18:48.728Z,18.09
2022-09-10T05:19:48.732Z,18.17
2022-09-10T05:20:48.733Z,18.04
2022-09-10T05:21:48.728Z,18.22
2022-09-10T05:22:48.707Z,18.22
2022-09-10T05:23:48.725Z,18.34
2022-09-10T05:24:48.690Z,18.29
2022-09-10T05:25:48.715Z,18.27
2022-09-10T05:26:48.680Z,18.43
2022-09-10T05:27:48.680Z,18.39
2022-09-10T05:28:48.692Z,18.44
2022-09-10T05:29:48.648Z,18.50
2022-09-10T05:30:51.667Z,18.61
2022-09-10T05:31:49.698Z,18.52
2022-09-10T05:32:48.707Z,18.64
2022-09-10T05:33:48.695Z,18.64
2022-09-10T05:34:48.629Z,18.64
2022-09-10T05:35:48.627Z,18.73
2022-09-10T05:36:48.671Z,18.77
2022-09-10T05:37:48.672Z,18.84
2022-09-10T05:38:48.604Z,18.79
2022-09-10T05:39:48.620Z,18.80
2022-09-10T05:40:48.600Z,18.76
2022-09-10T05:41:48.578Z,18.82
2022-09-10T05:42:48.584Z,18.77
2022-09-10T05:43:48.637Z,18.62
2022-09-10T05:44:48.565Z,18.62
2022-09-10T05:45:48.633Z,18.64
2022-09-10T05:46:48.592Z,18.46
2022-09-10T05:47:48.547Z,18.49
2022-09-10T05:48:48.583Z,18.54
2022-09-10T05:49:48.543Z,18.49
2022-09-10T05:50:48.522Z,18.46
2022-09-10T05:51:48.655Z,18.49
2022-09-10T05:52:48.501Z,18.74
2022-09-10T05:53:48.509Z,18.64
2022-09-10T05:54:48.532Z,18.72
2022-09-10T05:55:48.492Z,18.74
2022-09-10T05:56:48.476Z,18.82
2022-09-10T05:57:48.499Z,18.82
2022-09-10T05:58:48.491Z,18.84
2022-09-10T05:59:48.448Z,18.40
2022-09-10T06:00:48.450Z,18.25
2022-09-10T06:01:48.530Z,18.40
2022-09-10T06:02:48.604Z,18.49
2022-09-10T06:03:48.443Z,18.64
2022-09-10T06:04:48.431Z,18.72
2022-09-10T06:05:48.443Z,18.67
2022-09-10T06:06:48.414Z,18.55
2022-09-10T06:07:48.467Z,18.49
2022-09-10T06:08:48.436Z,18.57
2022-09-10T06:09:48.410Z,18.58
2022-09-10T06:10:48.419Z,18.62
2022-09-10T06:11:48.402Z,18.43
2022-09-10T06:12:48.403Z,18.28
2022-09-10T06:13:48.421Z,18.28
2022-09-10T06:14:48.367Z,18.31
2022-09-10T06:15:48.370Z,18.49
2022-09-10T06:16:48.440Z,18.37
2022-09-10T06:17:48.359Z,18.42
2022-09-10T06:18:48.448Z,18.50
2022-09-10T06:19:48.377Z,18.37
2022-09-10T06:20:48.349Z,18.09
2022-09-10T06:21:48.325Z,18.02
2022-09-10T06:22:48.346Z,18.00
2022-09-10T06:23:48.313Z,17.71
2022-09-10T06:24:48.354Z,17.91
2022-09-10T06:25:48.301Z,18.13
2022-09-10T06:26:48.809Z,18.21
2022-09-10T06:27:48.290Z,18.31
2022-09-10T06:28:48.301Z,18.42
2022-09-10T06:29:48.296Z,18.34
2022-09-10T06:30:57.960Z,18.44
2022-09-10T06:31:48.270Z,18.34
2022-09-10T06:32:48.266Z,18.37
2022-09-10T06:33:48.246Z,18.33
2022-09-10T06:34:48.290Z,18.46
2022-09-10T06:35:50.999Z,18.57
2022-09-10T06:36:50.244Z,18.58
2022-09-10T06:37:48.269Z,18.61
2022-09-10T06:38:48.225Z,18.50
2022-09-10T06:39:48.245Z,18.39
2022-09-10T06:40:48.239Z,18.50
2022-09-10T06:41:49.845Z,18.49
2022-09-10T06:42:49.201Z,18.37
2022-09-10T06:43:48.197Z,18.18
2022-09-10T06:44:48.431Z,18.34
2022-09-10T06:45:48.245Z,18.44
2022-09-10T06:47:25.851Z,18.49
2022-09-10T06:48:50.345Z,18.06
2022-09-10T06:49:48.163Z,18.10
2022-09-10T06:50:48.156Z,17.97
2022-09-10T06:51:48.204Z,17.92
2022-09-10T06:52:48.135Z,17.89
2022-09-10T06:53:48.128Z,17.95
2022-09-10T06:54:48.141Z,18.04
2022-09-10T06:55:48.139Z,17.97
2022-09-10T06:56:48.115Z,18.07
2022-09-10T06:57:48.126Z,18.03
2022-09-10T06:58:48.159Z,18.04
2022-09-10T06:59:48.103Z,18.17
2022-09-10T07:00:48.130Z,18.19
2022-09-10T07:01:48.191Z,18.07
2022-09-10T07:02:48.078Z,18.02
2022-09-10T07:03:48.070Z,18.03
2022-09-10T07:04:48.106Z,18.07
2022-09-10T07:05:48.073Z,18.02
2022-09-10T07:06:48.070Z,17.79
2022-09-10T07:07:48.048Z,17.67
2022-09-10T07:08:48.061Z,17.81
2022-09-10T07:09:48.033Z,17.85
2022-09-10T07:10:48.043Z,17.85
2022-09-10T07:11:48.031Z,18.00
2022-09-10T07:12:48.027Z,18.00
2022-09-10T07:13:48.058Z,18.07
2022-09-10T07:14:48.020Z,18.06
2022-09-10T07:15:48.042Z,18.03
2022-09-10T07:16:48.053Z,17.89
2022-09-10T07:17:48.001Z,18.09
2022-09-10T07:18:48.847Z,17.99
2022-09-10T07:19:48.909Z,18.04
2022-09-10T07:20:47.958Z,18.03
2022-09-10T07:21:47.968Z,18.09
2022-09-10T07:22:47.971Z,18.27
2022-09-10T07:23:47.955Z,18.07
2022-09-10T07:24:47.973Z,18.21
2022-09-10T07:25:47.931Z,18.33
2022-09-10T07:26:47.936Z,18.27
2022-09-10T07:27:47.929Z,18.33
2022-09-10T07:28:47.944Z,18.44
2022-09-10T07:29:47.904Z,18.44
2022-09-10T07:30:47.981Z,18.21
2022-09-10T07:31:47.895Z,18.29
2022-09-10T07:32:47.912Z,18.22
2022-09-10T07:33:47.915Z,18.02
2022-09-10T07:34:47.873Z,18.24
2022-09-10T07:35:47.861Z,18.28
2022-09-10T07:36:47.867Z,18.39
2022-09-10T07:37:47.865Z,18.57
2022-09-10T07:38:47.849Z,18.46
2022-09-10T07:39:47.882Z,18.68
2022-09-10T07:40:47.845Z,18.86
2022-09-10T07:41:47.841Z,18.83
2022-09-10T07:42:47.869Z,18.94
2022-09-10T07:43:47.811Z,18.77
2022-09-10T07:44:47.820Z,18.92
2022-09-10T07:45:47.846Z,18.97
2022-09-10T07:46:47.792Z,18.97
2022-09-10T07:47:48.418Z,18.97
2022-09-10T07:48:47.807Z,18.90
2022-09-10T07:49:47.762Z,18.94
2022-09-10T07:50:47.774Z,18.59
2022-09-10T07:51:47.766Z,18.68
2022-09-10T07:52:47.762Z,18.91
2022-09-10T07:53:50.782Z,18.86
2022-09-10T07:54:48.755Z,18.77
2022-09-10T07:55:47.734Z,18.55
2022-09-10T07:56:47.738Z,18.52
2022-09-10T07:57:47.766Z,18.59
2022-09-10T07:58:47.722Z,18.54
2022-09-10T07:59:47.710Z,18.42
2022-09-10T08:00:47.742Z,18.39
2022-09-10T08:01:47.730Z,18.39
2022-09-10T08:02:47.681Z,18.59
2022-09-10T08:03:47.690Z,18.64
2022-09-10T08:04:47.684Z,18.59
2022-09-10T08:05:48.083Z,18.50
2022-09-10T08:06:47.671Z,18.58
2022-09-10T08:07:47.655Z,18.67
2022-09-10T08:08:47.723Z,18.77
2022-09-10T08:09:47.635Z,18.95
2022-09-10T08:10:47.631Z,19.02
2022-09-10T08:11:47.627Z,18.92
2022-09-10T08:12:48.983Z,19.14
2022-09-10T08:13:47.610Z,19.11
2022-09-10T08:14:47.606Z,18.90
2022-09-10T08:15:47.619Z,19.21
2022-09-10T08:16:47.615Z,19.68
2022-09-10T08:17:48.419Z,20.06
2022-09-10T08:18:47.587Z,20.08
2022-09-10T08:19:47.586Z,20.21
2022-09-10T08:20:47.573Z,20.05
2022-09-10T08:21:47.563Z,20.34
2022-09-10T08:22:47.559Z,20.46
2022-09-10T08:23:47.543Z,20.39
2022-09-10T08:24:47.568Z,20.24
2022-09-10T08:25:47.555Z,19.93
2022-09-10T08:26:48.422Z,20.08
2022-09-10T08:27:47.583Z,19.80
2022-09-10T08:28:47.535Z,19.94
2022-09-10T08:29:47.523Z,20.10
2022-09-10T08:30:47.560Z,20.23
2022-09-10T08:31:47.494Z,20.30
2022-09-10T08:32:47.486Z,20.56
2022-09-10T08:33:47.479Z,20.53
2022-09-10T08:34:47.495Z,20.34
2022-09-10T08:35:48.694Z,20.51
2022-09-10T08:36:47.465Z,20.61
2022-09-10T08:37:47.472Z,20.72
2022-09-10T08:38:47.459Z,20.96
2022-09-10T08:39:47.507Z,20.89
2022-09-10T08:40:47.464Z,21.42
2022-09-10T08:41:47.447Z,21.20
2022-09-10T08:42:47.425Z,21.24
2022-09-10T08:43:47.447Z,21.35
2022-09-10T08:44:47.428Z,21.32
2022-09-10T08:45:47.445Z,21.41
2022-09-10T08:46:47.403Z,21.71
2022-09-10T08:47:47.419Z,21.69
2022-09-10T08:48:47.419Z,21.41
2022-09-10T08:49:47.405Z,21.14
2022-09-10T08:50:47.404Z,21.05
2022-09-10T08:51:47.401Z,21.14
2022-09-10T08:52:47.377Z,21.21
2022-09-10T08:53:47.397Z,20.83
2022-09-10T08:54:47.380Z,20.59
2022-09-10T08:55:48.997Z,20.72
2022-09-10T08:56:48.346Z,20.72
2022-09-10T08:57:47.357Z,20.69
2022-09-10T08:58:47.345Z,21.02
2022-09-10T08:59:47.330Z,21.14
2022-09-10T09:00:47.333Z,20.91
2022-09-10T09:01:47.466Z,21.08
2022-09-10T09:02:49.725Z,21.01
2022-09-10T09:03:48.397Z,21.26
2022-09-10T09:04:47.316Z,20.87
2022-09-10T09:05:47.298Z,20.74
2022-09-10T09:06:47.305Z,20.27
2022-09-10T09:07:47.294Z,20.34
2022-09-10T09:08:47.305Z,20.43
2022-09-10T09:09:47.330Z,20.38
2022-09-10T09:10:47.272Z,20.56
2022-09-10T09:11:47.283Z,20.50
2022-09-10T09:12:47.298Z,20.81
2022-09-10T09:13:47.249Z,20.91
2022-09-10T09:14:47.249Z,20.49
2022-09-10T09:15:47.266Z,20.64
2022-09-10T09:16:47.229Z,20.65
2022-09-10T09:17:47.265Z,20.39
2022-09-10T09:18:47.316Z,20.31
2022-09-10T09:19:47.219Z,20.23
2022-09-10T09:20:47.222Z,20.46
2022-09-10T09:21:47.233Z,20.51
2022-09-10T09:22:47.215Z,20.53
2022-09-10T09:24:09.382Z,20.64
2022-09-10T09:24:49.195Z,20.65
2022-09-10T09:25:47.177Z,20.86
2022-09-10T09:26:47.395Z,20.86
2022-09-10T09:27:47.176Z,20.43
2022-09-10T09:28:47.191Z,20.47
2022-09-10T09:29:47.168Z,20.59
2022-09-10T09:30:47.232Z,20.56
2022-09-10T09:31:47.160Z,20.65
2022-09-10T09:32:47.160Z,20.59
2022-09-10T09:33:47.137Z,20.33
2022-09-10T09:34:47.119Z,20.59
2022-09-10T09:35:47.130Z,20.65
2022-09-10T09:36:47.121Z,20.65
2022-09-10T09:37:47.135Z,20.56
2022-09-10T09:38:47.110Z,20.53
2022-09-10T09:39:47.153Z,20.59
2022-09-10T09:40:47.143Z,20.69
2022-09-10T09:41:47.095Z,20.81
2022-09-10T09:42:47.100Z,20.90
2022-09-10T09:43:47.080Z,20.80
2022-09-10T09:44:47.083Z,20.81
2022-09-10T09:45:47.097Z,20.56
2022-09-10T09:46:47.125Z,20.25
2022-09-10T09:47:47.076Z,20.25
2022-09-10T09:48:47.051Z,20.38
2022-09-10T09:49:47.057Z,20.31
2022-09-10T09:50:47.028Z,20.51
2022-09-10T09:51:47.024Z,20.61
2022-09-10T09:52:47.032Z,20.66
2022-09-10T09:53:49.396Z,20.64
2022-09-10T09:55:13.104Z,20.74
2022-09-10T09:55:49.022Z,20.84
2022-09-10T09:56:47.012Z,20.96
2022-09-10T09:57:46.995Z,21.17
2022-09-10T09:58:47.000Z,21.48
2022-09-10T09:59:46.979Z,21.41
2022-09-10T10:00:46.971Z,21.41
2022-09-10T10:01:47.119Z,21.57
2022-09-10T10:02:46.962Z,21.32
2022-09-10T10:03:46.967Z,21.48
2022-09-10T10:04:46.943Z,21.34
2022-09-10T10:05:46.963Z,21.59
2022-09-10T10:06:46.929Z,21.54
2022-09-10T10:07:46.949Z,21.23
2022-09-10T10:08:46.971Z,21.19
2022-09-10T10:09:46.920Z,21.35
2022-09-10T10:10:46.913Z,21.39
2022-09-10T10:11:46.936Z,21.48
2022-09-10T10:12:46.915Z,21.32
2022-09-10T10:13:47.984Z,20.87
2022-09-10T10:14:46.887Z,20.89
2022-09-10T10:15:46.922Z,21.14
2022-09-10T10:16:46.923Z,21.16
2022-09-10T10:17:46.863Z,21.16
2022-09-10T10:18:46.911Z,21.23
2022-09-10T10:19:46.863Z,21.36
2022-09-10T10:20:46.844Z,21.69
2022-09-10T10:21:46.835Z,21.50
2022-09-10T10:22:46.902Z,21.59
2022-09-10T10:23:46.843Z,21.50
2022-09-10T10:24:46.839Z,21.08
2022-09-10T10:25:46.860Z,21.21
2022-09-10T10:26:46.820Z,21.48
2022-09-10T10:27:46.836Z,21.57
2022-09-10T10:28:46.821Z,21.76
2022-09-10T10:29:46.837Z,22.60
2022-09-10T10:30:46.814Z,24.41
2022-09-10T10:31:46.785Z,25.37
2022-09-10T10:32:46.789Z,25.74
2022-09-10T10:33:46.782Z,26.08
2022-09-10T10:34:46.796Z,27.50
2022-09-10T10:35:46.760Z,27.23
2022-09-10T10:36:46.777Z,26.91
2022-09-10T10:37:46.756Z,26.83
2022-09-10T10:38:46.775Z,26.72
2022-09-10T10:39:46.777Z,26.55
2022-09-10T10:40:46.748Z,26.43
2022-09-10T10:41:46.794Z,27.43
2022-09-10T10:42:46.724Z,27.79
2022-09-10T10:43:46.704Z,28.21
2022-09-10T10:44:46.714Z,28.28
2022-09-10T10:45:46.714Z,27.80
2022-09-10T10:46:46.726Z,26.43
2022-09-10T10:47:46.793Z,27.24
2022-09-10T10:48:46.698Z,26.49
2022-09-10T10:49:46.687Z,25.83
2022-09-10T10:50:49.820Z,25.71
2022-09-10T10:51:48.666Z,25.72
2022-09-10T10:52:46.653Z,26.32
2022-09-10T10:53:46.654Z,26.54
2022-09-10T10:54:46.686Z,26.40
2022-09-10T10:55:46.692Z,26.20
2022-09-10T10:56:46.641Z,25.24
2022-09-10T10:57:46.622Z,25.09
2022-09-10T10:58:49.156Z,24.67
2022-09-10T10:59:46.619Z,24.44
2022-09-10T11:00:46.613Z,24.16
2022-09-10T11:01:46.780Z,23.97
2022-09-10T11:02:47.682Z,23.46
2022-09-10T11:03:46.591Z,23.15
2022-09-10T11:04:46.595Z,23.12
2022-09-10T11:05:46.601Z,23.12
2022-09-10T11:06:46.578Z,23.19
2022-09-10T11:07:46.630Z,23.09
2022-09-10T11:08:46.565Z,22.96
2022-09-10T11:09:46.600Z,22.68
2022-09-10T11:10:46.594Z,22.67
2022-09-10T11:11:46.531Z,22.49
2022-09-10T11:12:46.623Z,22.60
2022-09-10T11:13:46.547Z,22.49
2022-09-10T11:14:46.539Z,22.44
2022-09-10T11:15:46.545Z,22.14
2022-09-10T11:16:46.560Z,22.13
2022-09-10T11:17:46.511Z,22.20
2022-09-10T11:18:46.498Z,22.16
2022-09-10T11:19:46.494Z,22.31
2022-09-10T11:20:46.486Z,22.44
2022-09-10T11:21:46.498Z,22.59
2022-09-10T11:22:46.490Z,22.68
2022-09-10T11:23:46.465Z,22.67
2022-09-10T11:24:46.457Z,22.62
2022-09-10T11:25:46.453Z,22.65
2022-09-10T11:26:46.472Z,22.71
2022-09-10T11:27:46.439Z,23.19
2022-09-10T11:28:46.432Z,23.45
2022-09-10T11:29:46.444Z,23.53
2022-09-10T11:30:46.442Z,23.26
2022-09-10T11:31:46.450Z,23.38
2022-09-10T11:32:46.421Z,23.80
2022-09-10T11:33:46.413Z,23.32
2022-09-10T11:34:46.414Z,23.50
2022-09-10T11:35:46.400Z,23.53
2022-09-10T11:36:46.398Z,23.22
2022-09-10T11:37:46.391Z,22.93
2022-09-10T11:38:46.369Z,22.83
2022-09-10T11:39:46.377Z,23.58
2022-09-10T11:40:46.357Z,25.86
2022-09-10T11:41:46.340Z,26.92
2022-09-10T11:42:46.351Z,27.76
2022-09-10T11:43:46.348Z,28.66
2022-09-10T11:44:46.336Z,28.81
2022-09-10T11:45:46.314Z,29.41
2022-09-10T11:46:46.354Z,27.89
2022-09-10T11:47:46.326Z,26.22
2022-09-10T11:48:46.291Z,25.67
2022-09-10T11:49:46.303Z,25.15
2022-09-10T11:50:46.283Z,25.05
2022-09-10T11:51:46.273Z,24.90
2022-09-10T11:52:46.278Z,24.73
2022-09-10T11:53:46.297Z,24.39
2022-09-10T11:54:46.304Z,23.75
2022-09-10T11:55:46.247Z,24.07
2022-09-10T11:56:46.267Z,24.00
2022-09-10T11:57:46.239Z,23.86
2022-09-10T11:58:46.246Z,23.53
2022-09-10T11:59:46.232Z,23.23
2022-09-10T12:00:46.238Z,24.07
2022-09-10T12:01:46.279Z,23.98
2022-09-10T12:02:46.219Z,24.00
2022-09-10T12:03:46.228Z,23.76
2022-09-10T12:04:47.619Z,23.71
2022-09-10T12:05:47.198Z,23.47
2022-09-10T12:06:46.191Z,23.01
2022-09-10T12:07:46.189Z,22.82
2022-09-10T12:08:46.188Z,22.83
2022-09-10T12:09:46.166Z,22.92
2022-09-10T12:10:46.176Z,22.89
2022-09-10T12:11:46.156Z,22.50
2022-09-10T12:12:46.165Z,22.23
2022-09-10T12:13:46.146Z,22.14
2022-09-10T12:14:46.143Z,22.14
2022-09-10T12:15:46.144Z,22.12
2022-09-10T12:16:46.144Z,22.01
2022-09-10T12:17:46.104Z,21.83
2022-09-10T12:18:46.115Z,21.88
2022-09-10T12:19:46.109Z,21.97
2022-09-10T12:20:46.128Z,21.85
2022-09-10T12:21:46.093Z,21.72
2022-09-10T12:22:46.086Z,21.79
2022-09-10T12:23:46.093Z,21.82
2022-09-10T12:24:46.073Z,22.09
2022-09-10T12:25:46.089Z,22.31
2022-09-10T12:26:46.069Z,22.12
2022-09-10T12:27:46.042Z,22.34
2022-09-10T12:28:46.042Z,22.65
2022-09-10T12:29:46.035Z,22.90
2022-09-10T12:30:46.114Z,23.12
2022-09-10T12:31:46.049Z,22.89
2022-09-10T12:32:46.018Z,22.65
2022-09-10T12:34:17.958Z,22.67
2022-09-10T12:34:46.031Z,22.46
2022-09-10T12:35:45.997Z,22.23
2022-09-10T12:36:45.997Z,22.22
2022-09-10T12:37:45.981Z,22.16
2022-09-10T12:38:45.982Z,22.06
2022-09-10T12:39:46.021Z,21.97
2022-09-10T12:40:45.964Z,22.17
2022-09-10T12:41:45.969Z,22.23
2022-09-10T12:42:46.498Z,22.28
2022-09-10T12:43:45.945Z,22.34
2022-09-10T12:44:45.948Z,22.35
2022-09-10T12:45:45.940Z,22.31
2022-09-10T12:46:45.925Z,22.54
2022-09-10T12:47:45.929Z,22.39
2022-09-10T12:48:45.937Z,22.59
2022-09-10T12:49:45.917Z,22.75
2022-09-10T12:50:45.916Z,22.93
2022-09-10T12:51:45.906Z,22.99
2022-09-10T12:52:45.921Z,22.68
2022-09-10T12:53:45.901Z,22.59
2022-09-10T12:54:45.881Z,22.59